Time;durP1;ratioP1;P1;durP2;ratioP2;P2;SDS_P1;SDS_P2;PMS_P1;PMS_P2;Temp;Humidity;BMP_temperature;BMP_pressure;BME280_temperature;BME280_humidity;BME280_pressure;Samples;Min_cycle;Max_cycle;Signal;HPM_P1;HPM_P2
2023/12/31 00:01:11;;;;;;;29.10;27.58;;;;;;;;;;5029491;28;20038;-59
2023/12/31 00:03:37;;;;;;;29.02;27.42;;;;;;;;;;5031464;28;20025;-52
2023/12/31 00:06:02;;;;;;;26.35;24.95;;;;;;;;;;5028035;28;20045;-56
2023/12/31 00:08:28;;;;;;;29.00;27.42;;;;;;;;;;5026771;28;20046;-56
2023/12/31 00:10:53;;;;;;;28.40;26.75;;;;;;;;;;5029786;28;20109;-56
2023/12/31 00:13:19;;;;;;;27.67;26.17;;;;;;;;;;5029757;28;20040;-53
2023/12/31 00:15:44;;;;;;;27.35;25.85;;;;;;;;;;5027854;28;20045;-57
2023/12/31 00:18:10;;;;;;;28.13;26.63;;;;;;;;;;5029207;28;20033;-56
2023/12/31 00:20:35;;;;;;;27.48;25.92;;;;;;;;;;5025946;28;20033;-57
2023/12/31 00:23:00;;;;;;;26.05;24.55;;;;;;;;;;5031060;28;20116;-55
2023/12/31 00:25:26;;;;;;;26.30;24.90;;;;;;;;;;5029227;28;20132;-52
2023/12/31 00:27:51;;;;;;;28.15;25.70;;;;;;;;;;5029243;28;20029;-56
2023/12/31 00:30:16;;;;;;;26.30;24.88;;;;;;;;;;5025963;28;20068;-54
2023/12/31 00:32:42;;;;;;;28.08;26.48;;;;;;;;;;5032694;28;20333;-57
2023/12/31 00:35:07;;;;;;;28.58;27.08;;;;;;;;;;5030147;28;20056;-54
2023/12/31 00:37:33;;;;;;;27.90;26.30;;;;;;;;;;5024485;28;20025;-55
2023/12/31 00:39:58;;;;;;;29.58;27.98;;;;;;;;;;5025920;28;20036;-52
2023/12/31 00:42:24;;;;;;;29.90;28.30;;;;;;;;;;5028541;28;20428;-53
2023/12/31 00:44:49;;;;;;;29.38;27.88;;;;;;;;;;5026992;28;20082;-55
2023/12/31 00:47:14;;;;;;;28.58;27.00;;;;;;;;;;5027264;28;20029;-52
2023/12/31 00:49:40;;;;;;;29.33;27.52;;;;;;;;;;5027471;28;20371;-54
2023/12/31 00:52:06;;;;;;;30.00;28.20;;;;;;;;;;5022746;28;20034;-54
2023/12/31 00:54:31;;;;;;;28.75;27.23;;;;;;;;;;5027096;28;20033;-54
2023/12/31 00:56:57;;;;;;;29.35;27.75;;;;;;;;;;5028848;28;20072;-52
2023/12/31 00:59:22;;;;;;;29.50;27.70;;;;;;;;;;5027011;28;20034;-55
2023/12/31 01:01:48;;;;;;;30.73;29.00;;;;;;;;;;5027186;28;20030;-52
2023/12/31 01:04:14;;;;;;;30.50;28.90;;;;;;;;;;5027463;28;20341;-53
2023/12/31 01:06:39;;;;;;;31.80;30.13;;;;;;;;;;5026310;28;20515;-49
2023/12/31 01:09:06;;;;;;;28.90;27.25;;;;;;;;;;5031310;28;20065;-53
2023/12/31 01:11:31;;;;;;;28.13;26.63;;;;;;;;;;5028615;28;20040;-53
2023/12/31 01:13:57;;;;;;;28.25;26.50;;;;;;;;;;5029015;28;20424;-53
2023/12/31 01:16:22;;;;;;;29.67;28.02;;;;;;;;;;5026913;28;20549;-54
2023/12/31 01:18:47;;;;;;;31.38;29.58;;;;;;;;;;5032712;28;20036;-54
2023/12/31 01:21:13;;;;;;;28.83;26.92;;;;;;;;;;5026597;28;20045;-52
2023/12/31 01:23:38;;;;;;;29.83;28.13;;;;;;;;;;5029179;28;20104;-53
2023/12/31 01:26:03;;;;;;;27.60;26.10;;;;;;;;;;5029696;28;20048;-51
2023/12/31 01:28:29;;;;;;;28.10;26.60;;;;;;;;;;5033580;28;20045;-50
2023/12/31 01:30:54;;;;;;;28.67;27.02;;;;;;;;;;5030453;28;20407;-51
2023/12/31 01:33:20;;;;;;;29.30;27.75;;;;;;;;;;5034103;28;20052;-56
2023/12/31 01:35:46;;;;;;;30.80;29.10;;;;;;;;;;5030904;28;20430;-53
2023/12/31 01:38:11;;;;;;;30.02;28.40;;;;;;;;;;5029022;28;20064;-56
2023/12/31 01:40:36;;;;;;;29.13;27.60;;;;;;;;;;5026658;28;20057;-57
2023/12/31 01:43:02;;;;;;;30.65;29.00;;;;;;;;;;5035539;28;20029;-51
2023/12/31 01:45:28;;;;;;;29.63;28.05;;;;;;;;;;5030655;28;20460;-53
2023/12/31 01:47:54;;;;;;;30.08;28.42;;;;;;;;;;5034759;28;20116;-55
2023/12/31 01:50:21;;;;;;;29.17;27.63;;;;;;;;;;5030527;28;20120;-54
2023/12/31 01:52:46;;;;;;;28.48;26.98;;;;;;;;;;5033821;28;20037;-54
2023/12/31 01:55:12;;;;;;;28.73;27.13;;;;;;;;;;5029946;28;20118;-55
2023/12/31 01:57:39;;;;;;;31.90;30.20;;;;;;;;;;5033013;28;20033;-52
2023/12/31 02:00:06;;;;;;;32.10;30.40;;;;;;;;;;5028025;28;20339;-53
2023/12/31 02:02:31;;;;;;;33.35;31.65;;;;;;;;;;5033254;28;20052;-51
2023/12/31 02:04:57;;;;;;;34.42;32.63;;;;;;;;;;5033137;28;20025;-51
2023/12/31 02:07:23;;;;;;;33.83;32.08;;;;;;;;;;5028881;28;20033;-53
2023/12/31 02:09:49;;;;;;;32.90;31.20;;;;;;;;;;5030211;28;20367;-53
2023/12/31 02:12:15;;;;;;;33.08;31.38;;;;;;;;;;5030599;28;20056;-52
2023/12/31 02:14:40;;;;;;;33.20;31.50;;;;;;;;;;5030141;28;20036;-50
2023/12/31 02:17:06;;;;;;;32.58;30.77;;;;;;;;;;5035136;28;20606;-50
2023/12/31 02:19:31;;;;;;;32.80;30.92;;;;;;;;;;5031487;28;20029;-55
2023/12/31 02:21:57;;;;;;;32.83;30.92;;;;;;;;;;5031695;28;20123;-50
2023/12/31 02:24:34;;;;;;;35.60;33.70;;;;;;;;;;5030905;28;20033;-54
2023/12/31 02:26:59;;;;;;;37.28;35.38;;;;;;;;;;5031389;28;20030;-54
2023/12/31 02:29:24;;;;;;;39.92;37.90;;;;;;;;;;5030086;28;20033;-53
2023/12/31 02:31:50;;;;;;;41.53;39.28;;;;;;;;;;5031310;28;20029;-52
2023/12/31 02:34:15;;;;;;;40.45;38.35;;;;;;;;;;5027876;28;20029;-53
2023/12/31 02:36:40;;;;;;;44.60;42.30;;;;;;;;;;5029813;28;20033;-53
2023/12/31 02:39:06;;;;;;;47.20;44.80;;;;;;;;;;5032350;28;20475;-53
2023/12/31 02:41:32;;;;;;;47.33;44.92;;;;;;;;;;5028973;28;20029;-55
2023/12/31 02:43:57;;;;;;;44.97;42.67;;;;;;;;;;5032001;28;20029;-52
2023/12/31 02:46:23;;;;;;;50.17;47.65;;;;;;;;;;5023968;28;20491;-50
2023/12/31 02:48:48;;;;;;;54.72;51.97;;;;;;;;;;5031000;28;20086;-53
2023/12/31 02:51:13;;;;;;;54.92;52.05;;;;;;;;;;5029454;28;20110;-53
2023/12/31 02:53:39;;;;;;;56.53;53.65;;;;;;;;;;5034754;28;20495;-53
2023/12/31 02:56:04;;;;;;;56.58;53.33;;;;;;;;;;5031614;28;20037;-54
2023/12/31 02:58:30;;;;;;;57.97;55.08;;;;;;;;;;5030577;28;20049;-51
2023/12/31 03:00:55;;;;;;;56.70;53.85;;;;;;;;;;5032808;28;20498;-50
2023/12/31 03:03:20;;;;;;;57.42;54.53;;;;;;;;;;5031906;28;20078;-51
2023/12/31 03:05:46;;;;;;;56.70;53.85;;;;;;;;;;5028158;28;20029;-48
2023/12/31 03:08:11;;;;;;;57.60;54.58;;;;;;;;;;5027648;28;20494;-49
2023/12/31 03:10:37;;;;;;;63.20;59.90;;;;;;;;;;5030912;28;20351;-52
2023/12/31 03:13:03;;;;;;;61.85;58.70;;;;;;;;;;5026768;28;20046;-51
2023/12/31 03:15:28;;;;;;;61.30;58.20;;;;;;;;;;5027810;28;20029;-53
2023/12/31 03:17:53;;;;;;;57.95;55.05;;;;;;;;;;5028880;28;20120;-52
2023/12/31 03:20:19;;;;;;;64.30;61.05;;;;;;;;;;5030563;28;20052;-50
2023/12/31 03:22:47;;;;;;;65.63;62.33;;;;;;;;;;5026544;28;20037;-51
2023/12/31 03:25:13;;;;;;;64.03;60.83;;;;;;;;;;5028794;28;20037;-50
2023/12/31 03:27:39;;;;;;;63.55;60.35;;;;;;;;;;5030465;28;20039;-53
2023/12/31 03:30:05;;;;;;;64.57;61.38;;;;;;;;;;5032080;28;20033;-51
2023/12/31 03:32:31;;;;;;;59.97;56.97;;;;;;;;;;5034148;28;20478;-55
2023/12/31 03:34:56;;;;;;;59.20;56.20;;;;;;;;;;5030761;28;20029;-54
2023/12/31 03:37:21;;;;;;;61.08;57.97;;;;;;;;;;5027230;28;20425;-54
2023/12/31 03:39:47;;;;;;;60.40;57.40;;;;;;;;;;5027883;28;20044;-54
2023/12/31 03:42:12;;;;;;;60.45;57.15;;;;;;;;;;5027753;28;20025;-54
2023/12/31 03:44:37;;;;;;;64.70;61.45;;;;;;;;;;5026731;28;20017;-52
2023/12/31 03:47:03;;;;;;;56.58;53.72;;;;;;;;;;5033938;28;20040;-52
2023/12/31 03:49:28;;;;;;;58.35;55.40;;;;;;;;;;5030414;28;20056;-54
2023/12/31 03:51:54;;;;;;;60.13;57.13;;;;;;;;;;5028773;28;20037;-53
2023/12/31 03:54:19;;;;;;;60.35;57.35;;;;;;;;;;5030969;28;20079;-55
2023/12/31 03:56:44;;;;;;;57.28;54.35;;;;;;;;;;5032738;28;20378;-54
2023/12/31 03:59:10;;;;;;;59.53;56.47;;;;;;;;;;5028275;28;20423;-54
2023/12/31 04:01:43;;;;;;;62.17;59.08;;;;;;;;;;5033274;28;20463;-53
2023/12/31 04:04:08;;;;;;;62.33;58.88;;;;;;;;;;5029751;28;20494;-54
2023/12/31 04:06:34;;;;;;;65.00;61.70;;;;;;;;;;5024241;28;20037;-53
2023/12/31 04:08:59;;;;;;;59.13;56.13;;;;;;;;;;5025803;28;20468;-55
2023/12/31 04:11:25;;;;;;;56.80;53.90;;;;;;;;;;5031194;28;20068;-52
2023/12/31 04:13:50;;;;;;;59.47;56.47;;;;;;;;;;5028532;28;20095;-55
2023/12/31 04:16:15;;;;;;;59.90;56.88;;;;;;;;;;5027149;28;20029;-53
2023/12/31 04:18:41;;;;;;;57.60;54.70;;;;;;;;;;5032930;28;20029;-54
2023/12/31 04:21:06;;;;;;;61.80;58.70;;;;;;;;;;5030864;28;20029;-55
2023/12/31 04:23:31;;;;;;;62.70;59.55;;;;;;;;;;5038623;28;20103;-54
2023/12/31 04:25:57;;;;;;;57.80;54.90;;;;;;;;;;5030580;28;20075;-53
2023/12/31 04:28:22;;;;;;;58.03;55.13;;;;;;;;;;5030199;28;20696;-54
2023/12/31 04:30:47;;;;;;;57.83;54.85;;;;;;;;;;5027230;28;20406;-54
2023/12/31 04:33:13;;;;;;;57.60;54.70;;;;;;;;;;5025109;28;20052;-53
2023/12/31 04:35:38;;;;;;;59.40;56.30;;;;;;;;;;5028020;28;20037;-52
2023/12/31 04:38:03;;;;;;;54.97;52.17;;;;;;;;;;5024289;28;20102;-54
2023/12/31 04:40:29;;;;;;;54.80;52.00;;;;;;;;;;5034338;28;20041;-55
2023/12/31 04:42:54;;;;;;;57.78;54.88;;;;;;;;;;5027603;28;20076;-55
2023/12/31 04:45:20;;;;;;;54.45;51.70;;;;;;;;;;5011941;28;20135;-55
2023/12/31 04:47:45;;;;;;;53.65;50.95;;;;;;;;;;5027657;28;20369;-65
2023/12/31 04:50:10;;;;;;;55.13;52.13;;;;;;;;;;5036121;28;20045;-65
2023/12/31 04:52:36;;;;;;;51.33;48.70;;;;;;;;;;5032032;28;20040;-65
2023/12/31 04:55:01;;;;;;;52.95;50.25;;;;;;;;;;5034188;28;20041;-65
2023/12/31 04:57:27;;;;;;;55.28;52.50;;;;;;;;;;5027582;28;20029;-65
2023/12/31 04:59:52;;;;;;;55.65;52.85;;;;;;;;;;5032743;28;20044;-65
2023/12/31 05:02:17;;;;;;;55.08;52.20;;;;;;;;;;5035553;28;20048;-65
2023/12/31 05:04:43;;;;;;;52.60;49.95;;;;;;;;;;5029860;28;20038;-65
2023/12/31 05:07:09;;;;;;;57.05;54.17;;;;;;;;;;5034124;28;20513;-65
2023/12/31 05:09:35;;;;;;;57.28;54.38;;;;;;;;;;5031330;28;20486;-65
2023/12/31 05:12:01;;;;;;;56.22;53.33;;;;;;;;;;5026968;28;20138;-65
2023/12/31 05:14:26;;;;;;;61.20;58.10;;;;;;;;;;5035311;28;20146;-65
2023/12/31 05:16:51;;;;;;;63.08;59.88;;;;;;;;;;5028985;28;20045;-65
2023/12/31 05:19:17;;;;;;;66.40;63.10;;;;;;;;;;5032642;28;20315;-65
2023/12/31 05:21:42;;;;;;;67.63;64.22;;;;;;;;;;5027360;28;20036;-65
2023/12/31 05:24:08;;;;;;;68.57;65.13;;;;;;;;;;5029548;28;20376;-65
2023/12/31 05:26:33;;;;;;;69.57;66.07;;;;;;;;;;5030170;28;20033;-65
2023/12/31 05:28:58;;;;;;;70.35;66.85;;;;;;;;;;5031259;28;20399;-65
2023/12/31 05:31:24;;;;;;;71.03;67.45;;;;;;;;;;5032971;28;20068;-65
2023/12/31 05:33:49;;;;;;;66.68;63.35;;;;;;;;;;5030498;28;20040;-65
2023/12/31 05:36:15;;;;;;;67.95;64.55;;;;;;;;;;5029510;28;20029;-65
2023/12/31 05:38:40;;;;;;;63.45;60.22;;;;;;;;;;5032144;28;20036;-65
2023/12/31 05:41:05;;;;;;;64.88;61.58;;;;;;;;;;5035313;28;20037;-65
2023/12/31 05:43:31;;;;;;;61.65;58.55;;;;;;;;;;5035228;28;20033;-65
2023/12/31 05:45:56;;;;;;;65.10;61.85;;;;;;;;;;5029803;28;20037;-65
2023/12/31 05:48:21;;;;;;;62.47;59.35;;;;;;;;;;5039619;28;20044;-65
2023/12/31 05:50:47;;;;;;;61.15;58.05;;;;;;;;;;5032844;28;20034;-65
2023/12/31 05:53:13;;;;;;;60.63;57.55;;;;;;;;;;5033810;28;20532;-65
2023/12/31 05:55:38;;;;;;;63.13;59.83;;;;;;;;;;5037257;28;20033;-65
2023/12/31 05:58:04;;;;;;;59.55;56.53;;;;;;;;;;5030414;28;20281;-65
2023/12/31 06:00:29;;;;;;;59.58;56.58;;;;;;;;;;5034188;28;20359;-65
2023/12/31 06:02:55;;;;;;;62.30;59.20;;;;;;;;;;5025442;28;20334;-65
2023/12/31 06:05:21;;;;;;;62.35;59.22;;;;;;;;;;5031701;28;20041;-65
2023/12/31 06:07:46;;;;;;;65.05;61.75;;;;;;;;;;5030478;28;20037;-65
2023/12/31 06:10:11;;;;;;;68.18;64.75;;;;;;;;;;5034558;28;20487;-65
2023/12/31 06:12:37;;;;;;;65.88;62.58;;;;;;;;;;5032681;28;20575;-65
2023/12/31 06:15:06;;;;;;;65.40;62.10;;;;;;;;;;5030109;28;20412;-65
2023/12/31 06:17:35;;;;;;;63.05;59.88;;;;;;;;;;5033379;28;20037;-65
2023/12/31 06:20:02;;;;;;;64.32;61.10;;;;;;;;;;5033845;28;20463;-65
2023/12/31 06:22:28;;;;;;;65.25;61.97;;;;;;;;;;5031646;28;20107;-65
2023/12/31 06:24:53;;;;;;;64.20;60.85;;;;;;;;;;5032782;28;20120;-65
2023/12/31 06:27:18;;;;;;;64.20;60.95;;;;;;;;;;5030093;28;20446;-65
2023/12/31 06:29:44;;;;;;;65.20;61.35;;;;;;;;;;5030195;28;20099;-65
2023/12/31 06:32:09;;;;;;;69.97;66.47;;;;;;;;;;5031038;28;20730;-65
2023/12/31 06:34:34;;;;;;;68.85;65.35;;;;;;;;;;5034799;28;20270;-65
2023/12/31 06:37:00;;;;;;;69.05;65.60;;;;;;;;;;5031906;28;20360;-65
2023/12/31 06:39:25;;;;;;;66.57;63.28;;;;;;;;;;5030405;28;20033;-65
2023/12/31 06:41:50;;;;;;;67.82;64.43;;;;;;;;;;5030160;28;20029;-65
2023/12/31 06:44:16;;;;;;;67.95;64.53;;;;;;;;;;5030954;28;20047;-65
2023/12/31 06:46:42;;;;;;;66.63;63.22;;;;;;;;;;5029598;28;20049;-65
2023/12/31 06:49:07;;;;;;;63.40;59.95;;;;;;;;;;5029907;28;20047;-65
2023/12/31 06:51:33;;;;;;;59.95;56.85;;;;;;;;;;5031868;28;20397;-65
2023/12/31 06:53:58;;;;;;;57.47;54.53;;;;;;;;;;5034119;28;20040;-64
2023/12/31 06:56:24;;;;;;;57.90;54.95;;;;;;;;;;5027678;28;20932;-64
2023/12/31 06:58:50;;;;;;;58.20;55.20;;;;;;;;;;5033232;28;20648;-64
2023/12/31 07:01:16;;;;;;;58.05;54.85;;;;;;;;;;5030921;28;20272;-65
2023/12/31 07:03:42;;;;;;;59.15;56.15;;;;;;;;;;5028635;28;20067;-66
2023/12/31 07:06:08;;;;;;;54.67;51.90;;;;;;;;;;5028594;28;20049;-65
2023/12/31 07:08:34;;;;;;;55.60;52.80;;;;;;;;;;5029550;28;20033;-66
2023/12/31 07:10:59;;;;;;;55.85;53.05;;;;;;;;;;5031180;28;20074;-65
2023/12/31 07:13:24;;;;;;;55.15;52.35;;;;;;;;;;5030385;28;20495;-65
2023/12/31 07:15:50;;;;;;;53.97;50.65;;;;;;;;;;5032584;28;20382;-65
2023/12/31 07:18:15;;;;;;;55.10;52.30;;;;;;;;;;5031274;28;20036;-65
2023/12/31 07:20:41;;;;;;;55.35;52.55;;;;;;;;;;5029795;28;20059;-66
2023/12/31 07:23:06;;;;;;;54.90;52.00;;;;;;;;;;5028540;28;20501;-65
2023/12/31 07:25:32;;;;;;;60.25;56.88;;;;;;;;;;5028810;28;20112;-65
2023/12/31 07:28:01;;;;;;;52.45;49.72;;;;;;;;;;5031274;28;20037;-64
2023/12/31 07:30:27;;;;;;;57.97;54.85;;;;;;;;;;5016981;28;20057;-66
2023/12/31 07:32:52;;;;;;;54.92;52.13;;;;;;;;;;5031311;28;20115;-66
2023/12/31 07:35:18;;;;;;;58.85;55.90;;;;;;;;;;5029055;28;20371;-66
2023/12/31 07:37:43;;;;;;;60.13;57.13;;;;;;;;;;5029012;28;20502;-67
2023/12/31 07:40:10;;;;;;;60.90;57.80;;;;;;;;;;5027863;28;20107;-66
2023/12/31 07:42:37;;;;;;;63.25;60.05;;;;;;;;;;5027144;28;20087;-67
2023/12/31 07:45:04;;;;;;;62.20;59.00;;;;;;;;;;5028564;28;20049;-68
2023/12/31 07:47:30;;;;;;;61.78;58.65;;;;;;;;;;5031826;28;20033;-67
2023/12/31 07:49:56;;;;;;;62.03;58.92;;;;;;;;;;5028464;28;20131;-67
2023/12/31 07:52:21;;;;;;;68.55;65.07;;;;;;;;;;5029517;28;20128;-66
2023/12/31 07:54:46;;;;;;;65.97;62.58;;;;;;;;;;5030237;28;20096;-65
2023/12/31 07:57:12;;;;;;;62.45;59.33;;;;;;;;;;5031639;28;20033;-66
2023/12/31 07:59:38;;;;;;;60.72;57.63;;;;;;;;;;5028994;28;20440;-66
2023/12/31 08:02:04;;;;;;;57.10;54.20;;;;;;;;;;5030033;28;20062;-66
2023/12/31 08:04:29;;;;;;;57.33;54.42;;;;;;;;;;5030372;28;20439;-67
2023/12/31 08:06:54;;;;;;;53.97;51.28;;;;;;;;;;5032434;28;20107;-67
2023/12/31 08:09:20;;;;;;;52.90;50.20;;;;;;;;;;5030063;28;20037;-65
2023/12/31 08:11:46;;;;;;;51.78;49.10;;;;;;;;;;5034461;28;20481;-66
2023/12/31 08:14:11;;;;;;;51.85;49.17;;;;;;;;;;5028701;28;20125;-67
2023/12/31 08:16:36;;;;;;;51.83;49.20;;;;;;;;;;5030347;28;20040;-67
2023/12/31 08:19:03;;;;;;;50.85;48.05;;;;;;;;;;5031073;28;20024;-67
2023/12/31 08:21:29;;;;;;;49.53;47.03;;;;;;;;;;5025935;28;20041;-66
2023/12/31 08:23:54;;;;;;;48.28;45.80;;;;;;;;;;5034462;28;20078;-67
2023/12/31 08:26:20;;;;;;;45.13;42.83;;;;;;;;;;5027323;28;20064;-66
2023/12/31 08:28:45;;;;;;;47.97;45.47;;;;;;;;;;5031595;28;20444;-66
2023/12/31 08:31:13;;;;;;;40.42;38.33;;;;;;;;;;5027246;28;20038;-66
2023/12/31 08:33:38;;;;;;;39.10;37.00;;;;;;;;;;5027538;28;20061;-67
2023/12/31 08:36:03;;;;;;;36.28;34.38;;;;;;;;;;5027570;28;20061;-66
2023/12/31 08:38:29;;;;;;;33.47;31.77;;;;;;;;;;5030034;28;20037;-66
2023/12/31 08:40:54;;;;;;;34.30;32.50;;;;;;;;;;5031241;28;20048;-66
2023/12/31 08:43:19;;;;;;;33.65;31.95;;;;;;;;;;5024387;28;20500;-67
2023/12/31 08:45:46;;;;;;;33.50;31.80;;;;;;;;;;5025978;28;20617;-67
2023/12/31 08:48:12;;;;;;;31.33;29.63;;;;;;;;;;5028165;28;20021;-67
2023/12/31 08:50:37;;;;;;;30.00;28.30;;;;;;;;;;5026287;28;20056;-66
2023/12/31 08:53:02;;;;;;;27.30;25.90;;;;;;;;;;5028744;28;20675;-66
2023/12/31 08:55:28;;;;;;;26.83;25.42;;;;;;;;;;5024119;28;20068;-70
2023/12/31 08:57:53;;;;;;;27.98;26.48;;;;;;;;;;5020147;28;20476;-68
2023/12/31 09:00:19;;;;;;;26.40;25.00;;;;;;;;;;5026840;28;20045;-67
2023/12/31 09:02:45;;;;;;;25.25;23.92;;;;;;;;;;5027793;28;20052;-67
2023/12/31 09:05:11;;;;;;;26.27;24.88;;;;;;;;;;5022709;28;20037;-67
2023/12/31 09:07:36;;;;;;;26.60;25.10;;;;;;;;;;5030621;28;21197;-67
2023/12/31 09:10:05;;;;;;;25.05;23.73;;;;;;;;;;5023154;28;20040;-67
2023/12/31 09:12:31;;;;;;;25.02;23.73;;;;;;;;;;5027410;28;20077;-66
2023/12/31 09:14:57;;;;;;;24.20;22.90;;;;;;;;;;5035377;28;20110;-66
2023/12/31 09:17:22;;;;;;;24.50;23.20;;;;;;;;;;5030003;28;20167;-66
2023/12/31 09:19:47;;;;;;;23.75;22.45;;;;;;;;;;5024765;28;20551;-67
2023/12/31 09:22:13;;;;;;;23.17;21.88;;;;;;;;;;5030880;28;20095;-67
2023/12/31 09:24:38;;;;;;;23.77;22.38;;;;;;;;;;5023865;28;20366;-67
2023/12/31 09:27:07;;;;;;;24.15;22.63;;;;;;;;;;5032509;28;20036;-67
2023/12/31 09:29:33;;;;;;;22.52;21.33;;;;;;;;;;5030688;28;20036;-67
2023/12/31 09:31:58;;;;;;;23.75;22.45;;;;;;;;;;5028485;28;20171;-67
2023/12/31 09:34:24;;;;;;;22.98;21.70;;;;;;;;;;5028891;28;20036;-67
2023/12/31 09:36:50;;;;;;;23.25;21.90;;;;;;;;;;5029727;28;20028;-67
2023/12/31 09:39:15;;;;;;;23.92;22.48;;;;;;;;;;5030483;28;20037;-67
2023/12/31 09:41:41;;;;;;;23.17;21.95;;;;;;;;;;5031982;28;20029;-67
2023/12/31 09:44:07;;;;;;;23.40;22.10;;;;;;;;;;5027521;28;20520;-67
2023/12/31 09:46:37;;;;;;;23.80;22.50;;;;;;;;;;5030744;28;20083;-67
2023/12/31 09:49:03;;;;;;;24.73;23.42;;;;;;;;;;5032594;28;20032;-67
2023/12/31 09:51:29;;;;;;;22.92;21.63;;;;;;;;;;5032128;28;20037;-66
2023/12/31 09:53:55;;;;;;;25.55;24.15;;;;;;;;;;5036253;28;20046;-67
2023/12/31 09:56:22;;;;;;;24.45;23.10;;;;;;;;;;5034992;28;20112;-67
2023/12/31 09:58:51;;;;;;;22.98;21.77;;;;;;;;;;5034961;28;20520;-66
2023/12/31 10:01:17;;;;;;;23.20;21.92;;;;;;;;;;5030792;28;20567;-66
2023/12/31 10:03:45;;;;;;;24.33;22.92;;;;;;;;;;5036426;28;20128;-66
2023/12/31 10:06:10;;;;;;;22.40;21.20;;;;;;;;;;5029404;28;20037;-67
2023/12/31 10:08:38;;;;;;;23.08;21.77;;;;;;;;;;5033868;28;20041;-67
2023/12/31 10:11:04;;;;;;;23.92;22.63;;;;;;;;;;5031278;28;20269;-67
2023/12/31 10:13:30;;;;;;;23.65;22.35;;;;;;;;;;5031416;28;20032;-67
2023/12/31 10:15:56;;;;;;;22.23;20.98;;;;;;;;;;5034233;28;20572;-67
2023/12/31 10:18:25;;;;;;;23.50;22.17;;;;;;;;;;5032892;28;20045;-67
2023/12/31 10:20:51;;;;;;;22.45;21.25;;;;;;;;;;5032694;28;20072;-67
2023/12/31 10:23:16;;;;;;;23.92;22.42;;;;;;;;;;5031467;28;20087;-67
2023/12/31 10:25:42;;;;;;;23.05;21.70;;;;;;;;;;5034080;28;20044;-67
2023/12/31 10:28:08;;;;;;;23.50;22.10;;;;;;;;;;5033684;28;20045;-67
2023/12/31 10:30:37;;;;;;;22.23;21.02;;;;;;;;;;5030812;28;20044;-66
2023/12/31 10:33:09;;;;;;;24.08;22.77;;;;;;;;;;5033143;28;20033;-67
2023/12/31 10:35:36;;;;;;;24.58;23.08;;;;;;;;;;5030163;28;20598;-67
2023/12/31 10:38:04;;;;;;;22.73;21.52;;;;;;;;;;5035421;28;20045;-67
2023/12/31 10:40:30;;;;;;;22.73;21.50;;;;;;;;;;5029122;28;20021;-68
2023/12/31 10:42:56;;;;;;;22.92;21.70;;;;;;;;;;5035603;28;20033;-67
2023/12/31 10:45:22;;;;;;;24.17;22.88;;;;;;;;;;5031859;28;20375;-67
2023/12/31 10:47:58;;;;;;;25.25;23.88;;;;;;;;;;5034894;28;20032;-66
2023/12/31 10:50:24;;;;;;;24.05;22.75;;;;;;;;;;5029646;28;20034;-66
2023/12/31 10:52:52;;;;;;;24.52;23.20;;;;;;;;;;5030149;28;20037;-66
2023/12/31 10:55:17;;;;;;;23.75;22.45;;;;;;;;;;5031333;28;20021;-66
2023/12/31 10:57:43;;;;;;;24.48;23.10;;;;;;;;;;5030833;28;20090;-68
2023/12/31 11:00:11;;;;;;;24.25;22.95;;;;;;;;;;5036005;28;20045;-68
2023/12/31 11:02:37;;;;;;;23.38;22.13;;;;;;;;;;5034237;28;20029;-68
2023/12/31 11:05:03;;;;;;;25.63;24.13;;;;;;;;;;5032742;28;20040;-67
2023/12/31 11:07:29;;;;;;;22.67;21.45;;;;;;;;;;5030755;28;20033;-66
2023/12/31 11:09:57;;;;;;;23.90;22.60;;;;;;;;;;5027750;28;20045;-66
2023/12/31 11:12:23;;;;;;;24.75;23.45;;;;;;;;;;5026967;28;20045;-66
2023/12/31 11:15:15;;;;;;;23.05;21.83;;;;;;;;;;5032141;28;20037;-66
2023/12/31 11:18:05;;;;;;;24.48;23.13;;;;;;;;;;5032198;28;20111;-68
2023/12/31 11:20:58;;;;;;;23.17;21.92;;;;;;;;;;5029674;28;20065;-67
2023/12/31 11:23:49;;;;;;;24.73;23.40;;;;;;;;;;5033230;28;20037;-67
2023/12/31 11:26:15;;;;;;;23.13;21.93;;;;;;;;;;5031218;28;20482;-67
2023/12/31 11:28:48;;;;;;;24.67;23.35;;;;;;;;;;5026679;28;20080;-68
2023/12/31 11:31:14;;;;;;;25.63;24.23;;;;;;;;;;5031521;28;20372;-66
2023/12/31 11:33:47;;;;;;;26.55;25.05;;;;;;;;;;5032995;28;20034;-68
2023/12/31 11:36:14;;;;;;;25.00;23.60;;;;;;;;;;5042751;28;20034;-68
2023/12/31 11:38:59;;;;;;;27.05;25.55;;;;;;;;;;5031725;28;20044;-67
2023/12/31 11:41:32;;;;;;;26.98;25.55;;;;;;;;;;5029594;28;20032;-67
2023/12/31 11:44:07;;;;;;;26.77;25.35;;;;;;;;;;5029602;28;20033;-67
2023/12/31 11:46:45;;;;;;;27.60;25.70;;;;;;;;;;5031458;28;20039;-67
2023/12/31 11:49:12;;;;;;;25.48;24.10;;;;;;;;;;5033288;28;20053;-65
2023/12/31 11:51:51;;;;;;;28.25;26.75;;;;;;;;;;5028299;28;20394;-66
2023/12/31 11:54:24;;;;;;;26.25;24.85;;;;;;;;;;5034885;28;20037;-66
2023/12/31 11:56:53;;;;;;;28.83;27.33;;;;;;;;;;5032426;28;21156;-66
2023/12/31 11:59:19;;;;;;;28.58;27.05;;;;;;;;;;5030702;28;20289;-67
2023/12/31 12:01:48;;;;;;;29.35;27.80;;;;;;;;;;5029941;28;20120;-66
2023/12/31 12:04:13;;;;;;;30.00;28.40;;;;;;;;;;5026031;28;20032;-66
2023/12/31 12:06:40;;;;;;;28.85;27.33;;;;;;;;;;5023471;28;20392;-67
2023/12/31 12:09:06;;;;;;;30.13;28.52;;;;;;;;;;5025005;28;20451;-66
2023/12/31 12:11:33;;;;;;;29.23;27.65;;;;;;;;;;5030279;28;20449;-67
2023/12/31 12:14:00;;;;;;;29.08;27.58;;;;;;;;;;5028370;28;20041;-66
2023/12/31 12:16:27;;;;;;;29.45;27.90;;;;;;;;;;5029004;28;20103;-66
2023/12/31 12:18:59;;;;;;;29.85;28.20;;;;;;;;;;5030171;28;20051;-66
2023/12/31 12:21:26;;;;;;;28.88;27.38;;;;;;;;;;5028822;28;20033;-66
2023/12/31 12:23:53;;;;;;;30.88;29.27;;;;;;;;;;5032204;28;20132;-67
2023/12/31 12:26:19;;;;;;;31.13;29.52;;;;;;;;;;5033304;28;21164;-66
2023/12/31 12:28:47;;;;;;;30.40;28.80;;;;;;;;;;5027398;28;20099;-66
2023/12/31 12:31:15;;;;;;;32.28;30.58;;;;;;;;;;5028527;28;20036;-66
2023/12/31 12:33:43;;;;;;;30.33;28.73;;;;;;;;;;5029799;28;20112;-66
2023/12/31 12:36:09;;;;;;;28.88;27.38;;;;;;;;;;5028947;28;20033;-66
2023/12/31 12:38:36;;;;;;;30.13;28.52;;;;;;;;;;5029647;28;20489;-66
2023/12/31 12:41:02;;;;;;;28.20;26.70;;;;;;;;;;5033322;28;20431;-66
2023/12/31 12:43:31;;;;;;;28.77;27.27;;;;;;;;;;5024406;28;20022;-66
2023/12/31 12:46:06;;;;;;;29.20;27.67;;;;;;;;;;5030545;28;20041;-66
2023/12/31 12:48:48;;;;;;;30.23;28.60;;;;;;;;;;5029076;28;20371;-66
2023/12/31 12:51:13;;;;;;;29.10;27.48;;;;;;;;;;5027302;28;20060;-67
2023/12/31 12:53:39;;;;;;;27.63;26.20;;;;;;;;;;5028109;28;20565;-66
2023/12/31 12:56:04;;;;;;;25.80;24.45;;;;;;;;;;5028448;28;20109;-67
2023/12/31 12:58:29;;;;;;;28.15;26.58;;;;;;;;;;5029609;28;20364;-66
2023/12/31 13:00:56;;;;;;;26.25;24.88;;;;;;;;;;5029330;28;20370;-66
2023/12/31 13:03:21;;;;;;;27.00;25.60;;;;;;;;;;5031444;28;20463;-66
2023/12/31 13:05:46;;;;;;;27.00;25.58;;;;;;;;;;5030595;28;20205;-67
2023/12/31 13:08:12;;;;;;;25.52;24.17;;;;;;;;;;5027569;28;20363;-66
2023/12/31 13:10:37;;;;;;;25.42;24.10;;;;;;;;;;5029400;28;20523;-66
2023/12/31 13:13:04;;;;;;;26.70;25.30;;;;;;;;;;5025494;28;20044;-66
2023/12/31 13:15:30;;;;;;;28.08;26.58;;;;;;;;;;5034618;28;20042;-66
2023/12/31 13:17:55;;;;;;;28.20;26.70;;;;;;;;;;5033348;28;20036;-66
2023/12/31 13:20:21;;;;;;;27.73;26.23;;;;;;;;;;5029627;28;20391;-66
2023/12/31 13:22:46;;;;;;;29.35;27.85;;;;;;;;;;5030257;28;20489;-66
2023/12/31 13:25:11;;;;;;;27.25;25.80;;;;;;;;;;5032653;28;20025;-66
2023/12/31 13:27:37;;;;;;;27.00;25.60;;;;;;;;;;5032542;28;20041;-66
2023/12/31 13:30:02;;;;;;;27.80;26.35;;;;;;;;;;5027497;28;20097;-67
2023/12/31 13:32:27;;;;;;;27.10;25.67;;;;;;;;;;5032612;28;20573;-67
2023/12/31 13:34:53;;;;;;;29.05;27.55;;;;;;;;;;5031450;28;20061;-67
2023/12/31 13:37:18;;;;;;;31.45;29.85;;;;;;;;;;5031308;28;20042;-67
2023/12/31 13:39:43;;;;;;;29.30;27.80;;;;;;;;;;5030530;28;20476;-66
2023/12/31 13:42:09;;;;;;;28.52;26.92;;;;;;;;;;5032001;28;20045;-67
2023/12/31 13:44:36;;;;;;;27.33;25.88;;;;;;;;;;5030684;28;20033;-66
2023/12/31 13:47:02;;;;;;;28.95;27.45;;;;;;;;;;5033606;28;20095;-66
2023/12/31 13:49:27;;;;;;;26.65;25.25;;;;;;;;;;5030948;28;20029;-66
2023/12/31 13:51:52;;;;;;;28.67;27.15;;;;;;;;;;5034405;28;20040;-66
2023/12/31 13:54:20;;;;;;;27.35;25.95;;;;;;;;;;5032395;28;20455;-66
2023/12/31 13:56:46;;;;;;;25.60;24.25;;;;;;;;;;5034975;28;20359;-66
2023/12/31 13:59:12;;;;;;;26.33;24.92;;;;;;;;;;5033209;28;20056;-66
2023/12/31 14:01:38;;;;;;;26.38;25.00;;;;;;;;;;5031245;28;20460;-66
2023/12/31 14:04:04;;;;;;;27.67;26.25;;;;;;;;;;5030950;28;20109;-66
2023/12/31 14:06:29;;;;;;;26.45;25.05;;;;;;;;;;5030534;28;20250;-66
2023/12/31 14:08:55;;;;;;;28.08;26.58;;;;;;;;;;5034272;28;20053;-66
2023/12/31 14:11:20;;;;;;;25.88;24.50;;;;;;;;;;5032142;28;20044;-66